createdAt,value
2022-08-09T00:00:12.258Z,100787.84
2022-08-09T00:02:49.864Z,100789.17
2022-08-09T00:06:18.425Z,100790.52
2022-08-09T00:07:59.949Z,100782.43
2022-08-09T00:10:32.280Z,100789.17
2022-08-09T00:13:16.879Z,100784.72
2022-08-09T00:15:59.847Z,100780.58
2022-08-09T00:18:17.606Z,100781.92
2022-08-09T00:20:51.498Z,100787.06
2022-08-09T00:23:56.553Z,100789.13
2022-08-09T00:25:58.309Z,100781.19
2022-08-09T00:28:33.542Z,100779.63
2022-08-09T00:31:09.106Z,100783.39
2022-08-09T00:33:51.194Z,100778.90
2022-08-09T00:36:19.465Z,100779.95
2022-08-09T00:38:52.264Z,100777.52
2022-08-09T00:44:10.493Z,100774.94
2022-08-09T00:44:19.183Z,100771.12
2022-08-09T00:46:57.232Z,100780.59
2022-08-09T00:49:09.084Z,100778.52
2022-08-09T00:51:56.083Z,100784.18
2022-08-09T00:54:17.782Z,100783.82
2022-08-09T00:56:50.290Z,100794.16
2022-08-09T00:59:40.521Z,100791.72
2022-08-09T01:01:57.920Z,100787.95
2022-08-09T01:04:54.411Z,100791.90
2022-08-09T01:08:01.665Z,100784.46
2022-08-09T01:11:09.232Z,100785.52
2022-08-09T01:14:03.221Z,100784.50
2022-08-09T01:16:47.452Z,100780.05
2022-08-09T01:19:40.293Z,100786.56
2022-08-09T01:22:25.399Z,100782.07
2022-08-09T01:25:12.366Z,100787.63
2022-08-09T01:27:46.109Z,100785.24
2022-08-09T01:30:33.547Z,100790.24
2022-08-09T01:32:53.663Z,100786.98
2022-08-09T01:35:38.641Z,100786.16
2022-08-09T01:38:20.693Z,100785.65
2022-08-09T01:41:18.734Z,100779.13
2022-08-09T01:43:57.548Z,100789.86
2022-08-09T01:46:36.409Z,100788.67
2022-08-09T01:49:14.651Z,100793.38
2022-08-09T01:51:57.868Z,100793.28
2022-08-09T01:54:34.035Z,100797.45
2022-08-09T01:57:20.523Z,100786.94
2022-08-09T02:00:00.189Z,100799.00
2022-08-09T02:02:32.720Z,100800.38
2022-08-09T02:05:15.185Z,100799.03
2022-08-09T02:08:35.571Z,100792.84
2022-08-09T02:10:34.095Z,100790.08
2022-08-09T02:13:11.884Z,100796.31
2022-08-09T02:15:50.378Z,100795.11
2022-08-09T02:18:27.962Z,100798.05
2022-08-09T02:21:03.301Z,100797.00
2022-08-09T02:23:43.441Z,100790.47
2022-08-09T02:26:25.079Z,100794.27
2022-08-09T02:28:55.653Z,100787.25
2022-08-09T02:31:36.324Z,100788.44
2022-08-09T02:34:40.098Z,100795.98
2022-08-09T02:36:55.300Z,100797.00
2022-08-09T02:39:42.596Z,100796.70
2022-08-09T02:42:35.302Z,100798.44
2022-08-09T02:45:30.540Z,100802.20
2022-08-09T02:48:12.275Z,100798.80
2022-08-09T02:50:56.137Z,100796.43
2022-08-09T02:53:29.040Z,100805.22
2022-08-09T02:56:02.354Z,100804.70
2022-08-09T02:58:38.082Z,100806.44
2022-08-09T03:01:10.797Z,100804.04
2022-08-09T03:04:13.738Z,100803.38
2022-08-09T03:06:17.761Z,100807.52
2022-08-09T03:08:51.551Z,100807.52
2022-08-09T03:12:04.914Z,100802.31
2022-08-09T03:14:01.770Z,100796.81
2022-08-09T03:16:37.367Z,100800.55
2022-08-09T03:19:16.783Z,100808.09
2022-08-09T03:21:43.839Z,100809.84
2022-08-09T03:24:34.324Z,100815.16
2022-08-09T03:26:55.666Z,100808.25
2022-08-09T03:29:28.185Z,100809.75
2022-08-09T03:32:02.379Z,100817.12
2022-08-09T03:34:35.415Z,100808.86
2022-08-09T03:37:29.227Z,100804.16
2022-08-09T03:39:48.569Z,100803.20
2022-08-09T03:42:19.298Z,100801.80
2022-08-09T03:44:51.425Z,100801.98
2022-08-09T03:47:24.033Z,100811.98
2022-08-09T03:49:58.707Z,100813.00
2022-08-09T03:52:43.770Z,100819.48
2022-08-09T03:55:18.926Z,100817.06
2022-08-09T03:58:03.367Z,100823.11
2022-08-09T04:00:30.237Z,100825.66
2022-08-09T04:03:03.980Z,100824.38
2022-08-09T04:05:40.420Z,100823.14
2022-08-09T04:08:12.825Z,100821.68
2022-08-09T04:10:49.726Z,100817.67
2022-08-09T04:13:44.956Z,100821.73
2022-08-09T04:16:20.567Z,100813.20
2022-08-09T04:18:30.476Z,100812.41
2022-08-09T04:21:04.930Z,100818.84
2022-08-09T04:23:37.920Z,100809.11
2022-08-09T04:26:12.401Z,100810.75
2022-08-09T04:28:46.853Z,100801.49
2022-08-09T04:31:19.054Z,100802.98
2022-08-09T04:33:57.053Z,100802.23
2022-08-09T04:36:29.711Z,100805.44
2022-08-09T04:39:08.162Z,100804.13
2022-08-09T04:41:43.790Z,100802.80
2022-08-09T04:44:14.994Z,100801.98
2022-08-09T04:46:59.841Z,100808.38
2022-08-09T04:49:40.490Z,100806.75
2022-08-09T04:51:58.830Z,100805.55
2022-08-09T04:54:31.274Z,100806.15
2022-08-09T04:57:04.193Z,100812.98
2022-08-09T04:59:36.782Z,100809.78
2022-08-09T05:02:09.614Z,100810.69
2022-08-09T05:04:42.762Z,100816.70
2022-08-09T05:07:19.292Z,100809.34
2022-08-09T05:09:50.553Z,100803.84
2022-08-09T05:12:23.465Z,100799.67
2022-08-09T05:14:56.008Z,100800.67
2022-08-09T05:18:42.844Z,100804.81
2022-08-09T05:23:50.964Z,100816.25
2022-08-09T05:25:10.150Z,100810.20
2022-08-09T05:27:46.477Z,100814.00
2022-08-09T05:30:19.414Z,100813.48
2022-08-09T05:32:53.342Z,100812.84
2022-08-09T05:35:28.215Z,100820.87
2022-08-09T05:38:00.947Z,100827.11
2022-08-09T05:40:35.458Z,100825.69
2022-08-09T05:43:08.947Z,100817.56
2022-08-09T05:45:52.481Z,100822.30
2022-08-09T05:48:16.729Z,100818.03
2022-08-09T05:50:51.009Z,100824.41
2022-08-09T05:53:33.228Z,100817.59
2022-08-09T05:55:57.449Z,100823.64
2022-08-09T05:58:29.963Z,100826.30
2022-08-09T06:01:05.040Z,100825.42
2022-08-09T06:03:43.949Z,100825.52
2022-08-09T06:06:14.077Z,100829.66
2022-08-09T06:08:52.794Z,100827.69
2022-08-09T06:11:21.769Z,100830.84
2022-08-09T06:13:57.367Z,100828.17
2022-08-09T06:16:29.806Z,100835.81
2022-08-09T06:19:02.456Z,100833.95
2022-08-09T06:21:36.817Z,100834.51
2022-08-09T06:24:10.959Z,100840.47
2022-08-09T06:26:45.260Z,100843.20
2022-08-09T06:29:19.132Z,100842.99
2022-08-09T06:32:18.393Z,100837.70
2022-08-09T06:34:29.922Z,100835.00
2022-08-09T06:37:02.180Z,100835.00
2022-08-09T06:39:48.208Z,100833.96
2022-08-09T06:42:11.731Z,100834.22
2022-08-09T06:44:45.968Z,100835.64
2022-08-09T06:47:20.276Z,100838.23
2022-08-09T06:50:14.519Z,100847.67
2022-08-09T06:52:29.589Z,100850.95
2022-08-09T06:55:06.675Z,100838.03
2022-08-09T06:58:01.143Z,100834.00
2022-08-09T07:00:52.718Z,100840.82
2022-08-09T07:02:47.936Z,100841.03
2022-08-09T07:05:20.648Z,100844.47
2022-08-09T07:08:00.050Z,100840.29
2022-08-09T07:10:32.289Z,100841.05
2022-08-09T07:13:28.392Z,100840.84
2022-08-09T07:16:38.628Z,100844.27
2022-08-09T07:18:15.280Z,100851.83
2022-08-09T07:20:48.815Z,100842.74
2022-08-09T07:23:23.920Z,100848.41
2022-08-09T07:26:02.192Z,100856.12
2022-08-09T07:28:34.637Z,100847.55
2022-08-09T07:31:07.586Z,100852.66
2022-08-09T07:33:53.129Z,100844.84
2022-08-09T07:36:18.701Z,100846.28
2022-08-09T07:38:58.356Z,100855.23
2022-08-09T07:41:26.035Z,100846.88
2022-08-09T07:43:59.176Z,100851.48
2022-08-09T07:46:34.240Z,100844.14
2022-08-09T07:49:08.786Z,100848.14
2022-08-09T07:52:05.173Z,100846.77
2022-08-09T07:54:19.047Z,100843.45
2022-08-09T07:56:51.900Z,100848.24
2022-08-09T07:59:33.996Z,100845.28
2022-08-09T08:01:59.143Z,100854.58
2022-08-09T08:04:32.920Z,100852.54
2022-08-09T08:07:15.416Z,100850.19
2022-08-09T08:09:51.446Z,100852.72
2022-08-09T08:12:27.721Z,100863.31
2022-08-09T08:14:49.555Z,100863.44
2022-08-09T08:17:35.179Z,100853.19
2022-08-09T08:19:56.795Z,100858.41
2022-08-09T08:22:31.009Z,100864.18
2022-08-09T08:25:09.385Z,100863.19
2022-08-09T08:27:43.384Z,100858.00
2022-08-09T08:30:17.467Z,100865.98
2022-08-09T08:32:53.919Z,100859.88
2022-08-09T08:35:37.080Z,100862.30
2022-08-09T08:38:04.742Z,100860.30
2022-08-09T08:40:35.276Z,100869.53
2022-08-09T08:43:13.308Z,100855.90
2022-08-09T08:46:04.071Z,100858.27
2022-08-09T08:48:29.221Z,100867.05
2022-08-09T08:51:01.795Z,100855.53
2022-08-09T08:53:37.372Z,100856.92
2022-08-09T08:56:16.904Z,100852.06
2022-08-09T08:58:54.304Z,100849.70
2022-08-09T09:01:45.057Z,100850.83
2022-08-09T09:04:06.764Z,100847.09
2022-08-09T09:06:43.315Z,100849.53
2022-08-09T09:09:21.302Z,100853.09
2022-08-09T09:11:53.680Z,100854.14
2022-08-09T09:14:29.191Z,100847.05
2022-08-09T09:17:03.584Z,100841.92
2022-08-09T09:19:41.048Z,100833.36
2022-08-09T09:22:17.081Z,100829.42
2022-08-09T09:24:57.719Z,100837.25
2022-08-09T09:28:05.246Z,100827.83
2022-08-09T09:30:40.200Z,100832.44
2022-08-09T09:32:48.265Z,100830.16
2022-08-09T09:35:21.225Z,100836.73
2022-08-09T09:37:55.515Z,100825.75
2022-08-09T09:40:47.908Z,100831.55
2022-08-09T09:43:23.637Z,100823.70
2022-08-09T09:46:39.581Z,100826.56
2022-08-09T09:48:34.620Z,100829.11
2022-08-09T09:51:11.536Z,100832.27
2022-08-09T09:53:57.461Z,100833.19
2022-08-09T09:56:33.946Z,100836.41
2022-08-09T09:59:07.543Z,100836.63
2022-08-09T10:01:47.380Z,100834.34
2022-08-09T10:04:23.143Z,100831.51
2022-08-09T10:06:56.871Z,100839.33
2022-08-09T10:09:54.680Z,100833.11
2022-08-09T10:12:32.631Z,100843.27
2022-08-09T10:15:17.490Z,100841.70
2022-08-09T10:17:56.949Z,100831.62
2022-08-09T10:20:35.499Z,100828.66
2022-08-09T10:23:20.498Z,100833.05
2022-08-09T10:26:07.298Z,100835.30
2022-08-09T10:28:26.926Z,100835.05
2022-08-09T10:34:09.063Z,100830.77
2022-08-09T10:36:20.453Z,100831.17
2022-08-09T10:38:57.038Z,100826.56
2022-08-09T10:41:27.898Z,100828.61
2022-08-09T10:44:01.696Z,100822.27
2022-08-09T10:46:55.102Z,100820.02
2022-08-09T10:49:49.826Z,100819.80
2022-08-09T10:53:03.303Z,100807.33
2022-08-09T10:55:55.234Z,100819.31
2022-08-09T10:58:17.213Z,100812.95
2022-08-09T11:00:56.859Z,100813.09
2022-08-09T11:03:49.620Z,100808.83
2022-08-09T11:06:24.755Z,100808.57
2022-08-09T11:08:59.746Z,100796.31
2022-08-09T11:12:01.934Z,100800.14
2022-08-09T11:14:58.481Z,100799.30
2022-08-09T11:17:42.211Z,100787.89
2022-08-09T11:20:20.299Z,100791.30
2022-08-09T11:22:58.331Z,100791.73
2022-08-09T11:25:47.554Z,100786.80
2022-08-09T11:28:38.736Z,100800.89
2022-08-09T11:31:52.643Z,100800.05
2022-08-09T11:34:43.029Z,100795.34
2022-08-09T11:37:20.508Z,100806.03
2022-08-09T11:40:06.301Z,100804.53
2022-08-09T11:42:50.199Z,100809.34
2022-08-09T11:45:42.541Z,100797.16
2022-08-09T11:48:25.996Z,100796.20
2022-08-09T11:52:48.931Z,100795.55
2022-08-09T11:53:59.653Z,100793.12
2022-08-09T11:56:42.619Z,100798.25
2022-08-09T11:59:05.714Z,100800.89
2022-08-09T12:02:34.474Z,100797.28
2022-08-09T12:04:20.782Z,100802.41
2022-08-09T12:06:59.117Z,100796.20
2022-08-09T12:09:33.574Z,100797.39
2022-08-09T12:12:12.321Z,100793.33
2022-08-09T12:15:07.255Z,100783.83
2022-08-09T12:17:27.948Z,100783.83
2022-08-09T12:19:59.640Z,100791.19
2022-08-09T12:22:29.168Z,100789.15
2022-08-09T12:25:18.045Z,100787.66
2022-08-09T12:29:10.493Z,100788.84
2022-08-09T12:30:53.724Z,100790.02
2022-08-09T12:33:51.495Z,100781.90
2022-08-09T12:36:27.478Z,100786.37
2022-08-09T12:38:41.541Z,100784.67
2022-08-09T12:41:15.044Z,100786.50
2022-08-09T12:44:06.244Z,100781.25
2022-08-09T12:46:25.565Z,100786.16
2022-08-09T12:48:58.165Z,100778.80
2022-08-09T12:51:30.750Z,100774.33
2022-08-09T12:54:06.112Z,100776.54
2022-08-09T12:56:54.062Z,100772.72
2022-08-09T12:59:57.675Z,100774.94
2022-08-09T13:02:09.651Z,100780.94
2022-08-09T13:04:43.185Z,100786.37
2022-08-09T13:07:19.923Z,100795.35
2022-08-09T13:10:00.964Z,100796.09
2022-08-09T13:12:39.807Z,100798.86
2022-08-09T13:15:09.880Z,100793.00
2022-08-09T13:18:03.203Z,100794.60
2022-08-09T13:20:23.567Z,100789.57
2022-08-09T13:23:05.725Z,100791.38
2022-08-09T13:25:57.655Z,100791.08
2022-08-09T13:28:34.330Z,100790.88
2022-08-09T13:32:14.869Z,100791.83
2022-08-09T13:33:53.710Z,100780.94
2022-08-09T13:36:41.414Z,100784.37
2022-08-09T13:39:01.194Z,100785.41
2022-08-09T13:41:57.642Z,100794.27
2022-08-09T13:44:07.211Z,100785.75
2022-08-09T13:47:14.464Z,100788.30
2022-08-09T13:49:18.321Z,100788.30
2022-08-09T13:52:00.674Z,100788.72
2022-08-09T13:54:26.818Z,100790.64
2022-08-09T13:57:00.900Z,100786.27
2022-08-09T13:59:41.614Z,100783.65
2022-08-09T14:02:11.556Z,100782.45
2022-08-09T14:04:59.214Z,100785.02
2022-08-09T14:07:20.025Z,100785.02
2022-08-09T14:09:54.368Z,100781.79
2022-08-09T14:12:38.547Z,100783.28
2022-08-09T14:16:06.889Z,100782.63
2022-08-09T14:18:19.097Z,100779.13
2022-08-09T14:20:23.787Z,100779.13
2022-08-09T14:22:56.050Z,100777.62
2022-08-09T14:25:31.386Z,100774.44
2022-08-09T14:28:03.970Z,100774.44
2022-08-09T14:30:41.411Z,100778.28
2022-08-09T14:33:20.905Z,100780.51
2022-08-09T14:35:52.982Z,100774.75
2022-08-09T14:38:25.795Z,100765.91
2022-08-09T14:41:04.251Z,100763.24
2022-08-09T14:43:47.222Z,100762.83
2022-08-09T14:46:54.859Z,100770.25
2022-08-09T14:48:43.866Z,100765.88
2022-08-09T14:51:19.452Z,100767.68
2022-08-09T14:53:52.406Z,100769.55
2022-08-09T14:56:26.821Z,100768.78
2022-08-09T14:59:00.679Z,100768.67
2022-08-09T15:01:33.383Z,100762.64
2022-08-09T15:04:06.106Z,100762.64
2022-08-09T15:06:41.339Z,100769.87
2022-08-09T15:10:03.401Z,100762.84
2022-08-09T15:11:52.482Z,100764.94
2022-08-09T15:14:26.283Z,100764.94
2022-08-09T15:17:00.837Z,100761.10
2022-08-09T15:19:36.280Z,100764.53
2022-08-09T15:22:09.163Z,100761.86
2022-08-09T15:24:42.048Z,100758.11
2022-08-09T15:27:16.159Z,100759.80
2022-08-09T15:30:58.118Z,100760.00
2022-08-09T15:32:39.090Z,100749.65
2022-08-09T15:35:01.520Z,100750.27
2022-08-09T15:37:56.282Z,100739.89
2022-08-09T15:40:20.047Z,100739.89
2022-08-09T15:42:53.799Z,100739.38
2022-08-09T15:45:29.805Z,100744.56
2022-08-09T15:48:05.520Z,100735.94
2022-08-09T15:50:39.283Z,100738.59
2022-08-09T15:53:32.631Z,100727.83
2022-08-09T15:56:04.474Z,100726.86
2022-08-09T15:58:24.051Z,100737.30
2022-08-09T16:00:53.698Z,100732.17
2022-08-09T16:03:37.951Z,100729.06
2022-08-09T16:06:03.623Z,100727.77
2022-08-09T16:08:36.263Z,100732.47
2022-08-09T16:11:10.805Z,100728.83
2022-08-09T16:14:03.664Z,100734.38
2022-08-09T16:16:19.169Z,100722.31
2022-08-09T16:18:53.283Z,100724.63
2022-08-09T16:21:26.489Z,100718.87
2022-08-09T16:24:02.732Z,100720.51
2022-08-09T16:26:36.678Z,100721.23
2022-08-09T16:29:12.563Z,100719.19
2022-08-09T16:32:17.754Z,100715.32
2022-08-09T16:34:24.903Z,100716.59
2022-08-09T16:36:58.645Z,100719.56
2022-08-09T16:39:31.221Z,100718.84
2022-08-09T16:42:07.350Z,100720.02
2022-08-09T16:44:41.347Z,100714.48
2022-08-09T16:48:37.915Z,100719.16
2022-08-09T16:50:31.353Z,100721.55
2022-08-09T16:52:21.779Z,100722.34
2022-08-09T16:54:56.554Z,100726.58
2022-08-09T16:58:08.927Z,100725.37
2022-08-09T17:00:19.415Z,100733.40
2022-08-09T17:02:52.401Z,100734.86
2022-08-09T17:06:09.254Z,100736.84
2022-08-09T17:08:43.134Z,100734.16
2022-08-09T17:10:35.442Z,100738.37
2022-08-09T17:13:10.728Z,100735.54
2022-08-09T17:15:59.926Z,100734.31
2022-08-09T17:18:18.358Z,100743.60
2022-08-09T17:20:53.178Z,100739.84
2022-08-09T17:24:21.081Z,100741.42
2022-08-09T17:26:02.072Z,100741.98
2022-08-09T17:28:35.602Z,100739.92
2022-08-09T17:31:08.948Z,100744.81
2022-08-09T17:33:43.656Z,100742.64
2022-08-09T17:36:16.507Z,100745.25
2022-08-09T17:38:57.836Z,100746.70
2022-08-09T17:41:38.966Z,100753.69
2022-08-09T17:44:38.098Z,100752.69
2022-08-09T17:46:34.061Z,100755.84
2022-08-09T17:49:06.463Z,100757.22
2022-08-09T17:51:40.578Z,100765.70
2022-08-09T17:54:15.312Z,100779.52
2022-08-09T17:56:47.676Z,100777.83
2022-08-09T17:59:20.118Z,100778.02
2022-08-09T18:02:07.785Z,100771.30
2022-08-09T18:04:29.087Z,100777.89
2022-08-09T18:07:04.901Z,100780.49
2022-08-09T18:09:41.620Z,100780.49
2022-08-09T18:12:19.509Z,100782.94
2022-08-09T18:14:54.720Z,100782.27
2022-08-09T18:18:03.985Z,100781.81
2022-08-09T18:21:01.752Z,100786.47
2022-08-09T18:22:40.000Z,100785.83
2022-08-09T18:25:14.199Z,100783.09
2022-08-09T18:28:03.872Z,100780.88
2022-08-09T18:30:35.051Z,100772.44
2022-08-09T18:32:59.232Z,100773.49
2022-08-09T18:35:58.858Z,100769.22
2022-08-09T18:38:08.552Z,100772.87
2022-08-09T18:40:44.246Z,100778.41
2022-08-09T18:43:17.521Z,100773.63
2022-08-09T18:46:46.176Z,100764.66
2022-08-09T18:48:25.506Z,100768.80
2022-08-09T18:51:00.079Z,100766.42
2022-08-09T18:54:00.644Z,100767.48
2022-08-09T18:56:09.751Z,100773.71
2022-08-09T18:58:42.690Z,100774.09
2022-08-09T19:01:19.093Z,100783.08
2022-08-09T19:04:01.380Z,100786.22
2022-08-09T19:06:27.973Z,100783.47
2022-08-09T19:09:03.220Z,100784.11
2022-08-09T19:11:38.217Z,100782.37
2022-08-09T19:14:10.297Z,100782.73
2022-08-09T19:16:49.903Z,100782.53
2022-08-09T19:19:25.490Z,100775.83
2022-08-09T19:22:06.752Z,100774.98
2022-08-09T19:24:32.612Z,100777.20
2022-08-09T19:27:01.779Z,100775.50
2022-08-09T19:30:20.821Z,100775.18
2022-08-09T19:32:12.249Z,100765.70
2022-08-09T19:34:49.630Z,100767.59
2022-08-09T19:37:21.262Z,100761.21
2022-08-09T19:40:05.022Z,100767.59
2022-08-09T19:42:30.913Z,100773.13
2022-08-09T19:45:04.565Z,100762.08
2022-08-09T19:47:38.267Z,100755.69
2022-08-09T19:50:50.393Z,100759.51
2022-08-09T19:52:51.583Z,100757.30
2022-08-09T19:56:02.087Z,100758.86
2022-08-09T19:58:18.151Z,100753.72
2022-08-09T20:00:52.250Z,100750.09
2022-08-09T20:04:17.841Z,100756.87
2022-08-09T20:05:59.759Z,100758.08
2022-08-09T20:08:35.561Z,100754.68
2022-08-09T20:11:08.246Z,100755.73
2022-08-09T20:13:41.140Z,100747.45
2022-08-09T20:16:36.360Z,100740.58
2022-08-09T20:19:03.947Z,100742.53
2022-08-09T20:21:40.789Z,100750.03
2022-08-09T20:23:57.996Z,100741.78
2022-08-09T20:26:32.526Z,100741.16
2022-08-09T20:29:18.708Z,100746.41
2022-08-09T20:32:28.531Z,100737.26
2022-08-09T20:34:14.940Z,100735.74
2022-08-09T20:36:51.248Z,100737.31
2022-08-09T20:40:16.499Z,100745.78
2022-08-09T20:41:59.838Z,100751.62
2022-08-09T20:44:36.302Z,100746.10
2022-08-09T20:47:07.565Z,100749.73
2022-08-09T20:49:41.960Z,100740.08
2022-08-09T20:52:14.741Z,100744.20
2022-08-09T20:54:52.861Z,100738.50
2022-08-09T20:57:32.086Z,100737.12
2022-08-09T21:00:20.483Z,100727.66
2022-08-09T21:02:35.570Z,100728.17
2022-08-09T21:05:55.899Z,100739.94
2022-08-09T21:07:44.413Z,100737.05
2022-08-09T21:10:17.959Z,100734.98
2022-08-09T21:15:34.277Z,100721.87
2022-08-09T21:18:11.989Z,100715.35
2022-08-09T21:20:35.779Z,100719.81
2022-08-09T21:23:09.077Z,100726.01
2022-08-09T21:25:56.049Z,100731.17
2022-08-09T21:28:36.179Z,100723.08
2022-08-09T21:31:16.501Z,100722.44
2022-08-09T21:33:56.746Z,100727.46
2022-08-09T21:36:28.941Z,100728.70
2022-08-09T21:39:01.795Z,100729.22
2022-08-09T21:42:04.477Z,100723.24
2022-08-09T21:44:11.859Z,100728.76
2022-08-09T21:46:45.958Z,100729.77
2022-08-09T21:49:18.673Z,100729.90
2022-08-09T21:51:51.211Z,100730.41
2022-08-09T21:54:24.954Z,100726.95
2022-08-09T21:56:59.525Z,100725.57
2022-08-09T21:59:42.768Z,100725.76
2022-08-09T22:02:07.071Z,100730.41
2022-08-09T22:04:58.061Z,100729.90
2022-08-09T22:07:35.103Z,100732.11
2022-08-09T22:09:50.672Z,100732.98
2022-08-09T22:12:30.375Z,100732.47
2022-08-09T22:14:58.175Z,100730.73
2022-08-09T22:17:32.362Z,100734.55
2022-08-09T22:20:31.480Z,100735.60
2022-08-09T22:23:04.954Z,100730.22
2022-08-09T22:26:08.430Z,100723.84
2022-08-09T22:28:13.366Z,100727.84
2022-08-09T22:30:48.763Z,100731.46
2022-08-09T22:33:21.530Z,100722.00
2022-08-09T22:36:02.260Z,100718.56
2022-08-09T22:38:29.009Z,100711.85
2022-08-09T22:41:01.537Z,100708.77
2022-08-09T22:44:01.182Z,100712.72
2022-08-09T22:48:13.939Z,100701.55
2022-08-09T22:48:50.373Z,100698.80
2022-08-09T22:51:17.922Z,100694.98
2022-08-09T22:54:02.728Z,100693.28
2022-08-09T22:56:32.964Z,100691.22
2022-08-09T22:59:06.008Z,100692.30
2022-08-09T23:01:39.123Z,100688.86
2022-08-09T23:04:10.922Z,100695.61
2022-08-09T23:07:02.681Z,100694.23
2022-08-09T23:09:35.744Z,100695.45
2022-08-09T23:12:09.084Z,100694.06
2022-08-09T23:14:42.004Z,100694.42
2022-08-09T23:17:25.706Z,100692.50
2022-08-09T23:20:06.322Z,100692.31
2022-08-09T23:22:34.748Z,100694.88
2022-08-09T23:25:09.291Z,100697.81
2022-08-09T23:28:14.931Z,100693.67
2022-08-09T23:30:16.226Z,100693.12
2022-08-09T23:32:49.689Z,100691.23
2022-08-09T23:35:22.347Z,100686.91
2022-08-09T23:37:56.294Z,100682.78
2022-08-09T23:40:28.891Z,100682.95
2022-08-09T23:43:02.474Z,100684.48
2022-08-09T23:45:38.435Z,100691.55
2022-08-09T23:48:10.516Z,100700.88
2022-08-09T23:50:43.788Z,100697.76
2022-08-09T23:53:17.486Z,100696.02
2022-08-09T23:55:54.641Z,100681.40
2022-08-09T23:58:29.771Z,100681.05
